Time;durP1;ratioP1;P1;durP2;ratioP2;P2;SDS_P1;SDS_P2;PMS_P1;PMS_P2;Temp;Humidity;BMP_temperature;BMP_pressure;BME280_temperature;BME280_humidity;BME280_pressure;Samples;Min_cycle;Max_cycle;Signal;HPM_P1;HPM_P2
2022/06/30 00:01:03;;;;;;;5.40;3.97;;;18.60;99.90;;;;;;5073461;28;20063;-43
2022/06/30 00:03:28;;;;;;;5.97;4.03;;;18.80;99.90;;;;;;5072365;28;20044;-43
2022/06/30 00:05:54;;;;;;;6.55;3.58;;;18.90;99.90;;;;;;5071209;28;20824;-43
2022/06/30 00:08:19;;;;;;;5.28;3.45;;;19.00;99.90;;;;;;5073250;28;20085;-45
2022/06/30 00:10:45;;;;;;;7.75;4.05;;;19.00;99.90;;;;;;5073325;28;20138;-43
2022/06/30 00:13:12;;;;;;;4.82;3.35;;;19.10;99.90;;;;;;5072440;28;20389;-43
2022/06/30 00:15:39;;;;;;;6.40;3.15;;;19.20;99.90;;;;;;5073279;28;20656;-45
2022/06/30 00:18:05;;;;;;;6.90;3.35;;;19.00;99.90;;;;;;5073652;28;20048;-46
2022/06/30 00:20:31;;;;;;;5.97;3.35;;;19.10;99.90;;;;;;5072273;28;20871;-43
2022/06/30 00:23:00;;;;;;;7.40;3.58;;;20.70;99.90;;;;;;5076047;28;20032;-43
2022/06/30 00:25:26;;;;;;;5.00;3.08;;;19.20;99.90;;;;;;5075391;28;20040;-44
2022/06/30 00:27:52;;;;;;;5.75;2.78;;;19.30;99.90;;;;;;5076663;28;20344;-43
2022/06/30 00:30:18;;;;;;;5.30;2.75;;;19.20;99.90;;;;;;5076546;28;20036;-43
2022/06/30 00:32:43;;;;;;;5.70;3.05;;;19.30;99.90;;;;;;5075162;28;20643;-42
2022/06/30 00:35:09;;;;;;;6.03;3.05;;;19.10;99.90;;;;;;5075719;28;20043;-43
2022/06/30 00:37:35;;;;;;;8.48;3.33;;;19.20;99.90;;;;;;5075874;28;20405;-45
2022/06/30 00:40:00;;;;;;;5.22;3.00;;;20.00;99.90;;;;;;5076837;28;20047;-46
2022/06/30 00:42:27;;;;;;;6.82;2.90;;;21.00;99.90;;;;;;5074394;28;20164;-45
2022/06/30 00:44:52;;;;;;;8.68;3.13;;;18.90;99.90;;;;;;5077099;28;20039;-44
2022/06/30 00:47:20;;;;;;;4.50;2.60;;;19.10;99.90;;;;;;5077093;28;20044;-44
2022/06/30 00:49:46;;;;;;;7.95;3.28;;;18.80;99.90;;;;;;5077291;28;20048;-42
2022/06/30 00:52:14;;;;;;;4.50;2.83;;;19.20;99.90;;;;;;5077097;28;20040;-46
2022/06/30 00:54:41;;;;;;;4.55;2.92;;;19.00;99.90;;;;;;5078052;28;20044;-44
2022/06/30 00:57:09;;;;;;;5.53;3.00;;;18.90;99.90;;;;;;5076428;28;20040;-47
2022/06/30 00:59:36;;;;;;;6.38;3.45;;;18.90;99.90;;;;;;5076999;28;20048;-44
2022/06/30 01:02:03;;;;;;;7.25;3.40;;;19.00;99.90;;;;;;5077935;28;20051;-44
2022/06/30 01:04:33;;;;;;;9.13;3.30;;;18.80;99.90;;;;;;5077391;28;20131;-47
2022/06/30 01:07:00;;;;;;;7.82;3.20;;;19.10;99.90;;;;;;5075080;28;20504;-43
2022/06/30 01:14:57;;;;;;;5.03;3.30;;;18.80;99.90;;;;;;5074975;28;20558;-43
2022/06/30 01:17:22;;;;;;;7.82;3.58;;;20.70;99.90;;;;;;5074126;28;20043;-48
2022/06/30 01:19:52;;;;;;;5.50;3.40;;;18.80;99.90;;;;;;5076333;28;20093;-48
2022/06/30 01:22:18;;;;;;;7.07;3.33;;;18.90;99.90;;;;;;5076311;28;20294;-47
2022/06/30 01:24:44;;;;;;;8.07;3.40;;;19.70;99.90;;;;;;5073635;28;20440;-45
2022/06/30 01:27:11;;;;;;;5.43;3.30;;;18.80;99.90;;;;;;5075439;28;20721;-44
2022/06/30 01:29:37;;;;;;;5.25;2.95;;;18.60;99.90;;;;;;5075694;28;20032;-44
2022/06/30 01:32:03;;;;;;;5.78;3.50;;;18.60;99.90;;;;;;5076095;28;20069;-47
2022/06/30 01:34:29;;;;;;;5.05;3.38;;;18.70;99.90;;;;;;5075489;28;20050;-44
2022/06/30 01:36:55;;;;;;;6.68;3.25;;;18.70;99.90;;;;;;5075400;28;21473;-43
2022/06/30 01:39:20;;;;;;;5.35;2.90;;;18.50;99.90;;;;;;5075118;28;20044;-45
2022/06/30 01:41:46;;;;;;;5.50;3.42;;;19.00;99.90;;;;;;5075253;28;20067;-43
2022/06/30 01:44:12;;;;;;;7.50;3.28;;;19.20;99.90;;;;;;5074036;28;20093;-43
2022/06/30 01:46:45;;;;;;;5.75;3.28;;;18.80;99.90;;;;;;5075094;28;20479;-46
2022/06/30 01:49:11;;;;;;;6.20;3.60;;;18.40;99.90;;;;;;5074360;28;20040;-47
2022/06/30 01:51:37;;;;;;;5.95;3.30;;;20.50;99.90;;;;;;5075604;28;20039;-46
2022/06/30 01:54:05;;;;;;;5.10;3.13;;;19.40;99.90;;;;;;5074555;28;20113;-46
2022/06/30 01:56:30;;;;;;;7.28;3.65;;;18.30;99.90;;;;;;5074378;28;20044;-44
2022/06/30 01:58:58;;;;;;;6.50;3.40;;;20.90;99.90;;;;;;5074775;28;20032;-47
2022/06/30 02:01:23;;;;;;;7.93;3.45;;;20.70;99.90;;;;;;5074954;28;20533;-47
2022/06/30 02:03:49;;;;;;;5.18;3.67;;;20.40;99.90;;;;;;5076111;28;20044;-43
2022/06/30 02:06:14;;;;;;;6.50;3.38;;;18.30;99.90;;;;;;5075062;28;20127;-44
2022/06/30 02:08:40;;;;;;;6.70;3.70;;;18.40;99.90;;;;;;5075936;28;20096;-45
2022/06/30 02:11:06;;;;;;;6.15;3.30;;;18.30;99.90;;;;;;5075178;28;20040;-43
2022/06/30 02:13:31;;;;;;;5.53;3.75;;;19.80;99.90;;;;;;5076598;28;20085;-43
2022/06/30 02:15:57;;;;;;;5.25;3.22;;;18.30;99.90;;;;;;5075787;28;20040;-48
2022/06/30 02:18:23;;;;;;;6.82;3.47;;;18.30;99.90;;;;;;5074135;28;20321;-48
2022/06/30 02:20:48;;;;;;;5.47;3.13;;;18.00;99.90;;;;;;5075860;28;20039;-46
2022/06/30 02:23:14;;;;;;;6.30;3.70;;;20.50;99.90;;;;;;5074473;28;20439;-44
2022/06/30 02:25:40;;;;;;;8.02;4.00;;;17.90;99.90;;;;;;5073945;28;20039;-47
2022/06/30 02:28:05;;;;;;;6.72;4.22;;;18.30;99.90;;;;;;5074253;28;21545;-47
2022/06/30 02:30:32;;;;;;;7.03;3.28;;;19.10;99.90;;;;;;5074456;28;20051;-47
2022/06/30 02:32:58;;;;;;;6.25;3.42;;;18.10;99.90;;;;;;5074333;28;20040;-45
2022/06/30 02:35:26;;;;;;;4.63;3.05;;;19.70;99.90;;;;;;5074362;28;20407;-44
2022/06/30 02:37:53;;;;;;;4.85;3.47;;;20.10;99.90;;;;;;5073798;28;20043;-45
2022/06/30 02:40:19;;;;;;;8.95;3.95;;;19.40;99.90;;;;;;5073598;28;20970;-45
2022/06/30 02:42:47;;;;;;;7.88;4.00;;;17.80;99.90;;;;;;5074817;28;20132;-46
2022/06/30 02:45:13;;;;;;;5.57;3.47;;;17.90;99.90;;;;;;5072493;28;20036;-46
2022/06/30 02:47:41;;;;;;;5.68;3.92;;;18.50;99.90;;;;;;5073123;28;20035;-47
2022/06/30 02:50:09;;;;;;;5.95;3.72;;;18.30;99.90;;;;;;5073474;28;20359;-47
2022/06/30 02:52:37;;;;;;;7.25;4.25;;;17.70;99.90;;;;;;5072876;28;20200;-47
2022/06/30 02:55:04;;;;;;;5.32;3.70;;;20.00;99.90;;;;;;5074146;28;20483;-46
2022/06/30 02:57:30;;;;;;;6.88;4.05;;;17.60;99.90;;;;;;5074194;28;20035;-46
2022/06/30 02:59:56;;;;;;;5.88;4.05;;;17.70;99.90;;;;;;5073410;28;20040;-42
2022/06/30 03:02:22;;;;;;;10.38;4.15;;;19.70;99.90;;;;;;5074522;28;20556;-48
2022/06/30 03:04:48;;;;;;;7.47;4.28;;;17.40;99.90;;;;;;5073997;28;20067;-48
2022/06/30 03:07:15;;;;;;;6.28;3.70;;;18.00;99.90;;;;;;5072081;28;20123;-45
2022/06/30 03:09:42;;;;;;;5.40;4.00;;;19.30;99.90;;;;;;5072796;28;20055;-44
2022/06/30 03:12:08;;;;;;;5.97;4.18;;;17.50;99.90;;;;;;5073499;28;20672;-48
2022/06/30 03:14:33;;;;;;;6.35;3.90;;;17.60;99.90;;;;;;5073110;28;20799;-48
2022/06/30 03:16:59;;;;;;;7.85;3.95;;;18.10;99.90;;;;;;5074517;28;20494;-47
2022/06/30 03:19:25;;;;;;;6.57;3.67;;;17.40;99.90;;;;;;5072002;28;20044;-48
2022/06/30 03:21:53;;;;;;;8.15;4.20;;;17.40;99.90;;;;;;5074569;28;20498;-48
2022/06/30 03:24:20;;;;;;;6.25;4.38;;;19.30;99.90;;;;;;5073683;28;20123;-45
2022/06/30 03:26:46;;;;;;;6.03;3.55;;;19.60;99.90;;;;;;5073894;28;20462;-43
2022/06/30 03:29:11;;;;;;;7.18;4.40;;;17.30;99.90;;;;;;5074551;28;20048;-44
2022/06/30 03:31:37;;;;;;;7.80;4.25;;;17.20;99.90;;;;;;5074875;28;20101;-43
2022/06/30 03:34:03;;;;;;;6.35;4.00;;;17.30;99.90;;;;;;5074351;28;20032;-45
2022/06/30 03:36:29;;;;;;;8.43;3.92;;;17.30;99.90;;;;;;5073805;28;20493;-47
2022/06/30 03:38:55;;;;;;;8.13;3.80;;;17.40;99.90;;;;;;5074532;28;20052;-44
2022/06/30 03:41:20;;;;;;;6.97;4.07;;;17.30;99.90;;;;;;5074014;28;20036;-43
2022/06/30 03:43:46;;;;;;;10.80;4.55;;;18.30;99.90;;;;;;5073877;28;20051;-43
2022/06/30 03:46:14;;;;;;;5.93;3.95;;;17.80;99.90;;;;;;5073741;28;20048;-43
2022/06/30 03:48:41;;;;;;;7.05;4.13;;;18.60;99.90;;;;;;5072241;28;20080;-43
2022/06/30 03:51:08;;;;;;;5.55;3.88;;;17.30;99.90;;;;;;5072402;28;20519;-42
2022/06/30 03:53:34;;;;;;;6.13;4.35;;;17.30;99.90;;;;;;5072658;28;20732;-43
2022/06/30 03:55:59;;;;;;;6.20;4.10;;;18.70;99.90;;;;;;5073943;28;20066;-45
2022/06/30 03:58:25;;;;;;;5.07;3.70;;;17.50;99.90;;;;;;5077905;28;20476;-48
2022/06/30 04:00:52;;;;;;;7.70;4.25;;;17.90;99.90;;;;;;5075906;28;20516;-44
2022/06/30 04:03:20;;;;;;;5.43;3.95;;;17.40;99.90;;;;;;5077229;28;20040;-44
2022/06/30 04:05:45;;;;;;;6.05;4.00;;;17.30;99.90;;;;;;5076420;28;20469;-43
2022/06/30 04:08:11;;;;;;;6.32;3.90;;;17.30;99.90;;;;;;5077055;28;20056;-43
2022/06/30 04:10:40;;;;;;;5.13;3.72;;;18.10;99.90;;;;;;5077127;28;20034;-42
2022/06/30 04:13:06;;;;;;;7.75;4.63;;;19.00;99.90;;;;;;5075912;28;20036;-44
2022/06/30 04:15:31;;;;;;;6.82;4.25;;;18.30;99.90;;;;;;5075487;28;20047;-44
2022/06/30 04:17:57;;;;;;;5.10;3.75;;;17.30;99.90;;;;;;5076324;28;20043;-44
2022/06/30 04:20:23;;;;;;;6.25;3.78;;;17.50;99.90;;;;;;5076414;28;20032;-43
2022/06/30 04:22:50;;;;;;;5.53;3.55;;;17.70;99.90;;;;;;5075877;28;20032;-43
2022/06/30 04:25:17;;;;;;;5.13;3.53;;;17.90;99.90;;;;;;5075685;28;20036;-45
2022/06/30 04:27:48;;;;;;;6.00;3.10;;;17.80;99.90;;;;;;5077501;28;20047;-43
2022/06/30 04:30:15;;;;;;;6.22;4.05;;;18.80;99.90;;;;;;5077208;28;20044;-45
2022/06/30 04:32:41;;;;;;;7.85;4.03;;;17.80;99.90;;;;;;5075927;28;20078;-43
2022/06/30 04:35:11;;;;;;;8.57;4.15;;;17.80;99.90;;;;;;5076060;28;20496;-43
2022/06/30 04:37:38;;;;;;;7.88;4.18;;;19.00;99.90;;;;;;5076228;28;20036;-43
2022/06/30 04:42:52;;;;;;;7.90;3.97;;;18.00;99.90;;;;;;5077311;28;20105;-46
2022/06/30 04:45:18;;;;;;;5.78;3.90;;;18.00;99.90;;;;;;5077021;28;20032;-43
2022/06/30 04:47:44;;;;;;;6.07;4.40;;;18.30;99.90;;;;;;5076964;28;20693;-44
2022/06/30 04:50:10;;;;;;;6.10;3.78;;;18.50;99.90;;;;;;5075391;28;20070;-43
2022/06/30 04:52:36;;;;;;;4.90;3.55;;;18.20;99.90;;;;;;5075343;28;20130;-44
2022/06/30 04:55:02;;;;;;;9.20;4.18;;;18.40;99.90;;;;;;5077313;28;20043;-43
2022/06/30 04:57:28;;;;;;;5.55;4.18;;;20.80;99.90;;;;;;5075339;28;20385;-45
2022/06/30 04:59:57;;;;;;;6.28;4.20;;;18.50;99.90;;;;;;5077450;28;20123;-45
2022/06/30 05:02:22;;;;;;;5.10;3.75;;;18.40;99.90;;;;;;5076358;28;20040;-43
2022/06/30 05:04:50;;;;;;;8.32;3.85;;;19.40;99.90;;;;;;5076209;28;20058;-46
2022/06/30 05:07:16;;;;;;;7.18;3.88;;;18.70;99.90;;;;;;5076530;28;20036;-44
2022/06/30 05:09:42;;;;;;;9.82;4.18;;;18.60;99.90;;;;;;5076497;28;20040;-43
2022/06/30 05:12:08;;;;;;;8.98;3.90;;;18.80;99.90;;;;;;5073992;28;20035;-48
2022/06/30 05:14:34;;;;;;;6.25;4.22;;;18.90;99.90;;;;;;5074508;28;20042;-43
2022/06/30 05:16:59;;;;;;;5.30;3.60;;;18.90;99.90;;;;;;5076072;28;20068;-44
2022/06/30 05:19:27;;;;;;;6.07;3.92;;;19.10;99.90;;;;;;5073694;28;20036;-45
2022/06/30 05:21:53;;;;;;;7.03;3.83;;;18.90;99.90;;;;;;5075265;28;20040;-46
2022/06/30 05:27:15;;;;;;;6.63;4.90;;;19.20;99.90;;;;;;5010855;28;20046;-45
2022/06/30 05:29:41;;;;;;;5.63;3.80;;;19.20;99.90;;;;;;5011576;28;20410;-46
2022/06/30 05:32:07;;;;;;;6.50;4.13;;;20.20;99.90;;;;;;5012128;28;20504;-48
2022/06/30 05:34:34;;;;;;;5.93;3.78;;;19.50;99.90;;;;;;5011151;28;20806;-46
2022/06/30 05:37:00;;;;;;;8.55;4.07;;;19.60;99.90;;;;;;5010525;28;20050;-44
2022/06/30 05:39:25;;;;;;;7.82;4.20;;;19.60;99.90;;;;;;5009539;28;20584;-43
2022/06/30 05:41:51;;;;;;;6.07;4.03;;;20.30;99.90;;;;;;5011799;28;20041;-44
2022/06/30 05:44:16;;;;;;;10.05;5.22;;;19.70;99.90;;;;;;5011988;28;20045;-49
2022/06/30 05:46:43;;;;;;;5.40;3.63;;;19.80;99.90;;;;;;5011864;28;20136;-48
2022/06/30 05:49:11;;;;;;;5.68;3.67;;;19.90;99.90;;;;;;4994752;28;20135;-42
2022/06/30 05:51:37;;;;;;;7.78;3.75;;;20.00;99.90;;;;;;5011697;28;20207;-48
2022/06/30 05:54:03;;;;;;;5.13;3.90;;;20.00;99.90;;;;;;5011850;28;20050;-48
2022/06/30 05:56:30;;;;;;;6.95;3.85;;;20.00;99.90;;;;;;5012483;28;20160;-47
2022/06/30 05:58:56;;;;;;;5.47;3.90;;;22.20;99.90;;;;;;5012463;28;20179;-49
2022/06/30 06:01:22;;;;;;;8.57;4.15;;;20.20;99.90;;;;;;5012775;28;20104;-48
2022/06/30 06:03:47;;;;;;;8.00;4.78;;;20.90;99.90;;;;;;5048353;28;20050;-46
2022/06/30 06:06:13;;;;;;;6.90;4.05;;;20.40;99.90;;;;;;5075346;28;20044;-44
2022/06/30 06:08:40;;;;;;;7.70;4.07;;;20.70;99.90;;;;;;5074682;28;20532;-47
2022/06/30 06:11:06;;;;;;;6.20;4.15;;;20.50;99.90;;;;;;5075736;28;20082;-47
2022/06/30 06:13:31;;;;;;;6.82;4.20;;;20.60;99.90;;;;;;5074898;28;20127;-48
2022/06/30 06:15:57;;;;;;;6.60;4.30;;;20.60;99.90;;;;;;5075615;28;20530;-44
2022/06/30 06:18:24;;;;;;;6.47;4.18;;;20.10;99.90;;;;;;5074890;28;20052;-46
2022/06/30 06:20:50;;;;;;;7.95;4.15;;;21.40;99.90;;;;;;5075172;28;20040;-48
2022/06/30 06:23:15;;;;;;;6.20;4.20;;;21.90;99.90;;;;;;5073063;28;20043;-48
2022/06/30 06:25:43;;;;;;;6.15;3.92;;;22.30;99.90;;;;;;5073144;28;20048;-48
2022/06/30 06:30:55;;;;;;;6.05;4.10;;;22.30;99.90;;;;;;5072880;28;20040;-47
2022/06/30 06:33:21;;;;;;;5.25;3.75;;;22.20;99.90;;;;;;5072119;28;20046;-48
2022/06/30 06:35:46;;;;;;;9.10;4.40;;;22.20;99.90;;;;;;5071963;28;20052;-45
2022/06/30 06:38:12;;;;;;;5.68;4.07;;;24.70;99.90;;;;;;5071982;28;20043;-48
2022/06/30 06:40:38;;;;;;;6.70;4.45;;;23.20;99.90;;;;;;5070536;28;20055;-44
2022/06/30 06:43:04;;;;;;;7.78;4.38;;;22.40;99.90;;;;;;5072217;28;20120;-45
2022/06/30 06:45:32;;;;;;;7.10;4.20;;;22.40;99.90;;;;;;5070995;28;20073;-49
2022/06/30 06:47:57;;;;;;;7.20;4.90;;;22.50;99.90;;;;;;5071702;28;20131;-46
2022/06/30 06:50:23;;;;;;;7.07;4.43;;;22.50;99.90;;;;;;5070664;28;20050;-44
2022/06/30 06:52:49;;;;;;;6.85;5.20;;;22.50;99.90;;;;;;5071384;28;20075;-44
2022/06/30 06:55:17;;;;;;;6.78;4.35;;;23.00;99.90;;;;;;5070747;28;20036;-44
2022/06/30 06:57:43;;;;;;;6.43;4.50;;;23.30;99.90;;;;;;5071891;28;20040;-47
2022/06/30 07:00:12;;;;;;;6.70;4.00;;;23.90;99.90;;;;;;5073840;28;20128;-47
2022/06/30 07:02:39;;;;;;;5.93;3.92;;;24.20;99.90;;;;;;5071108;28;20138;-48
2022/06/30 07:05:06;;;;;;;8.68;4.75;;;24.40;99.90;;;;;;5072460;28;20061;-45
2022/06/30 07:07:32;;;;;;;5.65;4.20;;;24.50;99.90;;;;;;5073412;28;20459;-46
2022/06/30 07:09:57;;;;;;;5.32;4.35;;;24.50;99.90;;;;;;5073597;28;20047;-44
2022/06/30 07:12:23;;;;;;;6.18;4.00;;;25.00;99.90;;;;;;5072878;28;20066;-47
2022/06/30 07:14:50;;;;;;;8.10;4.50;;;25.40;99.90;;;;;;5072525;28;20051;-47
2022/06/30 07:17:15;;;;;;;8.57;4.70;;;26.00;99.90;;;;;;5071476;28;20508;-43
2022/06/30 07:19:42;;;;;;;6.55;3.58;;;27.10;99.90;;;;;;5071209;28;20044;-48
2022/06/30 07:22:08;;;;;;;9.25;3.90;;;27.70;99.90;;;;;;5073722;28;20044;-48
2022/06/30 07:24:34;;;;;;;5.90;4.10;;;28.10;99.90;;;;;;5073578;28;20051;-46
2022/06/30 07:27:00;;;;;;;6.38;4.00;;;28.40;99.90;;;;;;5075249;28;20040;-48
2022/06/30 07:29:30;;;;;;;5.53;4.10;;;29.00;99.90;;;;;;5072835;28;20600;-44
2022/06/30 07:31:56;;;;;;;6.28;3.58;;;29.40;99.90;;;;;;5074390;28;20070;-49
2022/06/30 07:34:22;;;;;;;6.53;3.67;;;29.90;99.90;;;;;;5073970;28;20519;-45
2022/06/30 07:36:48;;;;;;;8.32;3.75;;;30.20;99.90;;;;;;5072340;28;20040;-47
2022/06/30 07:39:15;;;;;;;9.00;3.55;;;30.50;99.90;;;;;;5073645;28;20048;-49
2022/06/30 07:41:41;;;;;;;5.82;3.97;;;31.00;99.90;;;;;;5071873;28;20420;-46
2022/06/30 07:44:07;;;;;;;7.03;3.72;;;31.10;99.90;;;;;;5072338;28;20036;-45
2022/06/30 07:46:32;;;;;;;7.10;3.92;;;31.20;99.90;;;;;;5070621;28;20325;-46
2022/06/30 07:48:58;;;;;;;6.00;3.45;;;31.70;99.90;;;;;;5071627;28;20079;-46
2022/06/30 07:51:24;;;;;;;7.28;3.67;;;31.80;99.90;;;;;;5071059;28;20044;-47
2022/06/30 07:53:52;;;;;;;6.25;3.88;;;31.60;99.90;;;;;;5071523;28;20040;-50
2022/06/30 07:56:17;;;;;;;5.85;3.53;;;31.50;99.90;;;;;;5073156;28;20389;-50
2022/06/30 07:58:43;;;;;;;6.53;3.80;;;31.70;99.90;;;;;;5072230;28;20043;-46
2022/06/30 08:01:09;;;;;;;7.70;3.25;;;31.90;99.90;;;;;;5072045;28;20047;-48
2022/06/30 08:03:35;;;;;;;7.07;3.78;;;32.20;99.90;;;;;;5072385;28;20572;-48
2022/06/30 08:06:01;;;;;;;6.68;3.53;;;32.30;99.90;;;;;;5072629;28;20047;-45
2022/06/30 08:08:29;;;;;;;6.60;3.83;;;32.00;99.90;;;;;;5071810;28;20044;-49
2022/06/30 08:10:54;;;;;;;5.38;3.65;;;32.40;99.90;;;;;;5070238;28;20443;-47
2022/06/30 08:13:20;;;;;;;5.57;3.83;;;32.50;99.90;;;;;;5070370;28;20040;-46
2022/06/30 08:15:50;;;;;;;6.63;3.60;;;32.70;99.90;;;;;;5072204;28;20048;-50
2022/06/30 08:18:15;;;;;;;5.88;3.30;;;32.10;99.90;;;;;;5073335;28;20040;-46
2022/06/30 08:20:41;;;;;;;5.80;3.80;;;31.90;99.90;;;;;;5071531;28;20086;-48
2022/06/30 08:23:09;;;;;;;6.03;3.85;;;32.00;99.90;;;;;;5071607;28;20105;-49
2022/06/30 08:25:34;;;;;;;6.30;3.47;;;32.40;99.90;;;;;;5072616;28;20055;-49
2022/06/30 08:28:00;;;;;;;6.10;3.75;;;32.10;99.90;;;;;;5072533;28;20102;-48
2022/06/30 08:30:26;;;;;;;5.78;3.75;;;31.80;99.90;;;;;;5072629;28;20089;-47
2022/06/30 08:32:51;;;;;;;6.88;3.58;;;31.90;99.90;;;;;;5072701;28;20052;-47
2022/06/30 08:35:17;;;;;;;5.60;4.00;;;31.90;99.90;;;;;;5074382;28;20043;-47
2022/06/30 08:37:45;;;;;;;5.85;4.10;;;32.10;99.90;;;;;;5072041;28;20562;-46
2022/06/30 08:42:56;;;;;;;7.57;4.18;;;32.10;99.90;;;;;;5075053;28;20424;-46
2022/06/30 08:45:24;;;;;;;7.20;4.43;;;31.70;99.90;;;;;;5075144;28;20125;-48
2022/06/30 08:47:50;;;;;;;7.38;4.22;;;32.10;99.90;;;;;;5075269;28;20059;-46
2022/06/30 08:50:17;;;;;;;8.30;4.63;;;31.90;99.90;;;;;;5075007;28;20044;-46
2022/06/30 08:52:58;;;;;;;7.32;3.88;;;31.90;99.90;;;;;;5074580;28;20102;-46
2022/06/30 08:55:31;;;;;;;7.18;4.25;;;31.80;99.90;;;;;;5075612;28;20438;-51
2022/06/30 08:58:05;;;;;;;6.95;4.43;;;31.80;99.90;;;;;;5076940;28;20028;-47
2022/06/30 09:00:32;;;;;;;6.53;4.40;;;31.90;99.90;;;;;;5076746;28;20035;-46
2022/06/30 09:02:58;;;;;;;9.10;4.10;;;31.90;99.90;;;;;;5075320;28;20040;-46
2022/06/30 09:05:24;;;;;;;5.93;4.35;;;31.50;99.90;;;;;;5075866;28;20495;-50
2022/06/30 09:07:50;;;;;;;10.02;5.47;;;31.60;99.90;;;;;;5076475;28;20036;-50
2022/06/30 09:10:16;;;;;;;7.40;4.43;;;31.30;99.90;;;;;;5076701;28;21106;-45
2022/06/30 09:12:59;;;;;;;7.07;5.93;;;31.30;99.90;;;;;;5074688;28;20044;-46
2022/06/30 09:15:27;;;;;;;6.60;5.63;;;31.40;99.90;;;;;;5074514;28;20686;-48
2022/06/30 09:17:55;;;;;;;8.20;6.18;;;31.40;99.90;;;;;;5074762;28;20499;-45
2022/06/30 09:20:36;;;;;;;49.25;17.15;;;31.20;99.90;;;;;;5076129;28;20035;-45
2022/06/30 09:23:21;;;;;;;12.68;7.15;;;31.20;99.90;;;;;;5075611;28;20036;-47
2022/06/30 09:25:49;;;;;;;9.70;7.35;;;30.90;99.90;;;;;;5075374;28;20040;-46
2022/06/30 09:28:37;;;;;;;14.20;8.25;;;30.60;99.90;;;;;;5076153;28;20100;-47
2022/06/30 09:31:02;;;;;;;8.40;7.50;;;30.40;99.90;;;;;;5074493;28;20068;-46
2022/06/30 09:33:36;;;;;;;9.00;6.38;;;30.10;99.90;;;;;;5075755;28;20132;-49
2022/06/30 09:36:18;;;;;;;9.05;6.95;;;30.10;99.90;;;;;;5075869;28;20055;-47
2022/06/30 09:39:03;;;;;;;12.85;6.88;;;29.80;99.90;;;;;;5074865;28;20075;-45
2022/06/30 09:41:31;;;;;;;8.75;6.82;;;29.80;99.90;;;;;;5075414;28;20119;-45
2022/06/30 09:43:57;;;;;;;9.35;6.40;;;30.10;99.90;;;;;;5074814;28;20072;-45
2022/06/30 09:46:23;;;;;;;8.50;6.68;;;29.80;99.90;;;;;;5075789;28;20558;-47
2022/06/30 09:48:49;;;;;;;8.10;6.90;;;30.00;99.90;;;;;;5074884;28;20048;-46
2022/06/30 09:51:14;;;;;;;11.27;6.30;;;30.20;99.90;;;;;;5074175;28;20690;-46
2022/06/30 09:53:41;;;;;;;8.73;5.82;;;30.10;99.90;;;;;;5072138;28;20040;-45
2022/06/30 09:56:16;;;;;;;8.30;6.93;;;30.00;99.90;;;;;;5074904;28;20421;-45
2022/06/30 09:58:42;;;;;;;9.93;6.63;;;30.00;99.90;;;;;;5072647;28;20069;-45
2022/06/30 10:01:10;;;;;;;11.60;6.95;;;29.90;99.90;;;;;;5074949;28;20036;-46
2022/06/30 10:03:47;;;;;;;12.27;5.95;;;30.00;99.90;;;;;;5075126;28;20458;-47
2022/06/30 10:06:18;;;;;;;10.20;6.43;;;30.00;99.90;;;;;;5073454;28;20044;-45
2022/06/30 10:08:43;;;;;;;12.73;7.00;;;29.90;99.90;;;;;;5072852;28;20152;-46
2022/06/30 10:11:11;;;;;;;9.73;7.15;;;30.10;99.90;;;;;;5075149;28;20647;-45
2022/06/30 10:13:40;;;;;;;10.75;6.70;;;30.00;99.90;;;;;;5074982;28;20504;-47
2022/06/30 10:16:07;;;;;;;11.70;6.93;;;29.80;99.90;;;;;;5074035;28;20079;-47
2022/06/30 10:18:37;;;;;;;7.40;5.97;;;30.30;99.90;;;;;;5072010;28;20135;-47
2022/06/30 10:21:04;;;;;;;9.95;6.93;;;30.30;99.90;;;;;;5075896;28;20538;-46
2022/06/30 10:23:31;;;;;;;10.07;5.78;;;30.10;99.90;;;;;;5075616;28;20475;-48
2022/06/30 10:25:58;;;;;;;65.53;11.15;;;29.80;99.90;;;;;;5076303;28;20036;-48
2022/06/30 10:28:27;;;;;;;17.90;6.15;;;29.70;99.90;;;;;;5075016;28;20046;-45
2022/06/30 10:31:20;;;;;;;16.88;7.28;;;29.80;99.90;;;;;;5074654;28;20089;-47
2022/06/30 10:34:26;;;;;;;11.40;6.78;;;30.10;99.90;;;;;;5075450;28;20508;-46
2022/06/30 10:37:16;;;;;;;9.45;6.32;;;29.90;99.90;;;;;;4993098;28;20046;-45
2022/06/30 10:39:46;;;;;;;13.33;6.60;;;30.00;99.90;;;;;;4992572;28;20069;-45
2022/06/30 10:42:45;;;;;;;10.13;6.32;;;29.30;99.90;;;;;;4991706;28;20585;-45
2022/06/30 10:45:29;;;;;;;11.15;5.43;;;29.20;99.90;;;;;;4992175;28;20526;-44
2022/06/30 10:47:55;;;;;;;9.10;6.47;;;28.70;99.90;;;;;;4991216;28;20049;-44
2022/06/30 10:50:33;;;;;;;9.25;6.10;;;28.70;99.90;;;;;;4966945;28;20050;-47
2022/06/30 10:53:04;;;;;;;7.68;4.80;;;28.50;99.90;;;;;;4991405;28;20108;-46
2022/06/30 10:55:42;;;;;;;6.70;5.30;;;28.50;99.90;;;;;;4974843;28;21195;-49
2022/06/30 10:58:08;;;;;;;7.13;5.40;;;29.10;99.90;;;;;;4992971;28;20060;-48
2022/06/30 11:00:43;;;;;;;8.50;4.78;;;29.20;99.90;;;;;;4991177;28;20037;-44
2022/06/30 11:03:29;;;;;;;9.27;4.32;;;29.80;99.90;;;;;;4992454;28;20034;-45
2022/06/30 11:05:56;;;;;;;8.75;4.45;;;30.20;99.90;;;;;;4990927;28;20049;-48
2022/06/30 11:08:49;;;;;;;11.52;5.32;;;30.50;99.90;;;;;;4991992;28;20049;-46
2022/06/30 11:11:24;;;;;;;11.20;6.93;;;30.50;99.90;;;;;;5048277;28;20556;-47
2022/06/30 11:14:02;;;;;;;10.65;8.00;;;30.10;99.90;;;;;;5074184;28;20504;-44
2022/06/30 11:16:32;;;;;;;13.02;7.50;;;30.30;99.90;;;;;;5072044;28;20032;-44
2022/06/30 11:19:00;;;;;;;8.27;6.43;;;29.90;99.90;;;;;;5074108;28;20472;-44
2022/06/30 11:21:31;;;;;;;10.35;7.78;;;29.70;99.90;;;;;;5073629;28;20036;-46
2022/06/30 11:24:02;;;;;;;11.32;7.03;;;29.20;99.90;;;;;;5074197;28;20038;-46
2022/06/30 11:29:17;;;;;;;15.30;7.03;;;29.50;99.90;;;;;;5074112;28;20512;-46
2022/06/30 11:31:43;;;;;;;7.80;5.55;;;29.70;99.90;;;;;;5073276;28;20071;-45
2022/06/30 11:34:14;;;;;;;9.60;5.05;;;30.00;99.90;;;;;;5073671;28;20127;-44
2022/06/30 11:36:41;;;;;;;10.87;6.07;;;30.10;99.90;;;;;;5071977;28;20032;-47
2022/06/30 11:39:31;;;;;;;13.18;5.40;;;30.20;99.90;;;;;;5072593;28;20567;-44
2022/06/30 11:41:58;;;;;;;9.68;6.95;;;30.40;99.90;;;;;;5010633;28;20063;-46
2022/06/30 11:44:40;;;;;;;11.02;5.70;;;30.30;99.90;;;;;;5010210;28;20050;-44
2022/06/30 11:47:10;;;;;;;7.28;5.70;;;30.30;99.90;;;;;;5010049;28;20057;-44
2022/06/30 11:49:54;;;;;;;12.55;6.30;;;30.40;99.90;;;;;;5011971;28;20172;-46
2022/06/30 11:52:22;;;;;;;8.48;5.43;;;30.10;99.90;;;;;;5011475;28;20049;-47
2022/06/30 11:54:56;;;;;;;11.35;6.10;;;30.00;99.90;;;;;;5010403;28;20138;-43
2022/06/30 11:57:30;;;;;;;12.63;5.55;;;30.00;99.90;;;;;;4994919;28;20045;-47
2022/06/30 12:00:00;;;;;;;9.07;5.38;;;30.20;99.90;;;;;;5010841;28;20057;-46
2022/06/30 12:02:26;;;;;;;10.57;5.63;;;30.00;99.90;;;;;;4996301;28;21336;-44
2022/06/30 12:04:53;;;;;;;7.25;4.13;;;30.00;99.90;;;;;;5011193;28;20050;-45
2022/06/30 12:07:21;;;;;;;10.70;4.35;;;29.80;99.90;;;;;;5010767;28;20737;-46
2022/06/30 12:09:47;;;;;;;9.18;4.18;;;30.10;99.90;;;;;;5009917;28;20044;-44
2022/06/30 12:12:13;;;;;;;12.63;4.25;;;30.10;99.90;;;;;;5012351;28;20041;-49
2022/06/30 12:14:39;;;;;;;9.18;4.05;;;30.30;99.90;;;;;;5009728;28;20122;-45
2022/06/30 12:17:07;;;;;;;8.75;4.57;;;30.10;99.90;;;;;;5011448;28;20045;-45
2022/06/30 12:19:33;;;;;;;10.15;3.78;;;30.10;99.90;;;;;;5058093;28;20585;-49
2022/06/30 12:22:02;;;;;;;8.80;4.93;;;30.10;99.90;;;;;;5073390;28;20661;-46
2022/06/30 12:24:31;;;;;;;8.70;4.45;;;30.20;99.90;;;;;;5075941;28;20539;-47
2022/06/30 12:26:58;;;;;;;8.85;4.90;;;30.00;99.90;;;;;;5077544;28;20044;-47
2022/06/30 12:29:27;;;;;;;7.25;4.15;;;29.60;99.90;;;;;;5077220;28;20122;-50
2022/06/30 12:32:07;;;;;;;7.03;4.28;;;29.90;99.90;;;;;;5076351;28;20036;-45
2022/06/30 12:34:48;;;;;;;8.23;4.30;;;29.80;99.90;;;;;;5075389;28;20036;-44
2022/06/30 12:37:18;;;;;;;7.78;4.40;;;29.30;99.90;;;;;;5076867;28;20161;-44
2022/06/30 12:39:45;;;;;;;11.82;5.30;;;29.50;99.90;;;;;;5073878;28;20039;-46
2022/06/30 12:42:11;;;;;;;9.18;4.43;;;29.30;99.90;;;;;;5075414;28;20070;-46
2022/06/30 12:44:38;;;;;;;8.13;4.40;;;29.20;99.90;;;;;;5075814;28;20071;-45
2022/06/30 12:47:06;;;;;;;8.68;3.35;;;29.20;99.90;;;;;;5075972;28;20040;-44
2022/06/30 12:49:32;;;;;;;8.32;3.63;;;29.30;99.90;;;;;;5076140;28;20052;-44
2022/06/30 12:51:58;;;;;;;7.97;3.80;;;29.00;99.90;;;;;;5074342;28;20047;-46
2022/06/30 12:54:26;;;;;;;7.63;4.07;;;29.00;99.90;;;;;;5075229;28;20126;-45
2022/06/30 12:57:02;;;;;;;8.40;4.40;;;28.50;99.90;;;;;;5074293;28;20052;-47
2022/06/30 12:59:28;;;;;;;10.02;6.00;;;28.60;99.90;;;;;;5074519;28;20209;-46
2022/06/30 13:02:00;;;;;;;10.00;5.90;;;28.20;99.90;;;;;;5077041;28;20036;-44
2022/06/30 13:04:31;;;;;;;12.18;5.88;;;28.40;99.90;;;;;;5077043;28;20115;-44
2022/06/30 13:06:57;;;;;;;;;;;28.30;99.90;;;;;;5076639;28;20101;-46
2022/06/30 13:09:28;;;;;;;11.90;6.40;;;28.30;99.90;;;;;;5075783;28;20527;-44